createdAt,value
2017-10-01T00:00:52.459Z,90.39
2017-10-01T00:01:52.473Z,90.67
2017-10-01T00:02:52.501Z,89.81
2017-10-01T00:03:52.526Z,90.58
2017-10-01T00:04:52.540Z,88.85
2017-10-01T00:05:52.668Z,88.95
2017-10-01T00:06:52.580Z,89.76
2017-10-01T00:07:52.601Z,91.2
2017-10-01T00:08:52.628Z,91.35
2017-10-01T00:09:52.644Z,92.06
2017-10-01T00:10:52.670Z,92.97
2017-10-01T00:11:52.687Z,92.54
2017-10-01T00:12:52.712Z,92.3
2017-10-01T00:13:52.782Z,92.78
2017-10-01T00:14:53.067Z,92.69
2017-10-01T00:15:52.773Z,93.16
2017-10-01T00:16:52.794Z,92.69
2017-10-01T00:17:52.817Z,93.35
2017-10-01T00:18:52.841Z,94.02
2017-10-01T00:19:52.862Z,94.7
2017-10-01T00:20:52.882Z,93.07
2017-10-01T00:21:52.897Z,93.26
2017-10-01T00:22:52.918Z,93.26
2017-10-01T00:23:52.937Z,93.07
2017-10-01T00:24:52.964Z,94.12
2017-10-01T00:25:53.293Z,93.45
2017-10-01T00:26:53.003Z,92.49
2017-10-01T00:27:53.025Z,93.16
2017-10-01T00:28:53.404Z,93.45
2017-10-01T00:29:53.070Z,93.16
2017-10-01T00:30:53.087Z,93.35
2017-10-01T00:31:53.108Z,92.69
2017-10-01T00:32:53.126Z,92.64
2017-10-01T00:33:53.149Z,93.21
2017-10-01T00:34:53.172Z,94.84
2017-10-01T00:35:53.191Z,94.36
2017-10-01T00:36:53.216Z,93.12
2017-10-01T00:37:53.229Z,93.21
2017-10-01T00:38:53.252Z,93.98
2017-10-01T00:39:53.270Z,93.12
2017-10-01T00:40:53.291Z,93.6
2017-10-01T00:41:53.312Z,93.21
2017-10-01T00:42:53.334Z,93.4
2017-10-01T00:43:53.355Z,93.31
2017-10-01T00:44:53.428Z,93.4
2017-10-01T00:45:53.395Z,93.12
2017-10-01T00:46:53.419Z,92.64
2017-10-01T00:47:53.438Z,92.83
2017-10-01T00:48:53.454Z,92.74
2017-10-01T00:49:53.476Z,93.21
2017-10-01T00:50:53.497Z,92.93
2017-10-01T00:51:53.533Z,92.78
2017-10-01T00:52:53.536Z,92.97
2017-10-01T00:53:53.558Z,92.4
2017-10-01T00:54:53.579Z,92.02
2017-10-01T00:55:53.599Z,92.11
2017-10-01T00:56:53.617Z,91.35
2017-10-01T00:57:53.955Z,91.83
2017-10-01T00:58:53.664Z,91.44
2017-10-01T00:59:53.749Z,91.53
2017-10-01T01:00:53.712Z,91.83
2017-10-01T01:01:53.727Z,90.77
2017-10-01T01:02:53.742Z,91.25
2017-10-01T01:03:53.762Z,90.77
2017-10-01T01:04:53.783Z,90.2
2017-10-01T01:05:53.810Z,91.11
2017-10-01T01:06:53.830Z,90.58
2017-10-01T01:07:53.855Z,90.58
2017-10-01T01:08:53.874Z,91.53
2017-10-01T01:09:53.913Z,91.44
2017-10-01T01:10:53.911Z,90.1
2017-10-01T01:11:53.933Z,89.81
2017-10-01T01:12:53.954Z,91.2
2017-10-01T01:13:54.288Z,91.06
2017-10-01T01:14:53.995Z,91.16
2017-10-01T01:15:54.018Z,91.16
2017-10-01T01:16:54.081Z,90.77
2017-10-01T01:17:54.260Z,90.58
2017-10-01T01:18:54.079Z,89.81
2017-10-01T01:19:54.411Z,89.81
2017-10-01T01:20:54.114Z,90.58
2017-10-01T01:21:54.138Z,89.62
2017-10-01T01:22:54.157Z,89.81
2017-10-01T01:23:54.177Z,90.58
2017-10-01T01:24:54.198Z,91.3
2017-10-01T01:25:54.226Z,90.58
2017-10-01T01:26:54.240Z,91.44
2017-10-01T01:27:54.260Z,90.87
2017-10-01T01:28:54.281Z,92.02
2017-10-01T01:29:54.323Z,91.3
2017-10-01T01:30:54.322Z,92.45
2017-10-01T01:31:55.057Z,93.02
2017-10-01T01:32:54.382Z,93.35
2017-10-01T01:33:54.390Z,92.88
2017-10-01T01:34:54.410Z,92.78
2017-10-01T01:35:54.427Z,92.49
2017-10-01T01:36:54.450Z,93.5
2017-10-01T01:37:54.470Z,93.55
2017-10-01T01:38:54.487Z,92.97
2017-10-01T01:39:54.821Z,94.21
2017-10-01T01:40:54.532Z,93.64
2017-10-01T01:41:54.551Z,92.59
2017-10-01T01:42:54.575Z,92.59
2017-10-01T01:43:54.593Z,93.12
2017-10-01T01:44:54.618Z,93.02
2017-10-01T01:45:54.642Z,93.12
2017-10-01T01:46:54.654Z,93.31
2017-10-01T01:47:54.674Z,94.26
2017-10-01T01:48:54.748Z,93.98
2017-10-01T01:49:54.715Z,94.17
2017-10-01T01:50:54.738Z,94.74
2017-10-01T01:51:54.756Z,94.74
2017-10-01T01:52:54.777Z,93.31
2017-10-01T01:53:54.800Z,94.36
2017-10-01T01:54:54.819Z,95.36
2017-10-01T01:55:54.841Z,95.41
2017-10-01T01:56:54.858Z,95.7
2017-10-01T01:57:54.879Z,95.32
2017-10-01T01:58:54.904Z,94.74
2017-10-01T01:59:54.922Z,94.36
2017-10-01T02:00:54.947Z,94.51
2017-10-01T02:01:54.961Z,94.41
2017-10-01T02:02:54.980Z,95.65
2017-10-01T02:03:55.002Z,95.75
2017-10-01T02:04:55.073Z,95.17
2017-10-01T02:05:55.357Z,95.56
2017-10-01T02:06:55.064Z,96.13
2017-10-01T02:07:55.105Z,96.32
2017-10-01T02:08:55.102Z,95.61
2017-10-01T02:09:55.123Z,94.46
2017-10-01T02:10:55.146Z,95.22
2017-10-01T02:11:55.477Z,95.61
2017-10-01T02:12:55.188Z,95.98
2017-10-01T02:13:55.210Z,96.66
2017-10-01T02:14:55.273Z,96.47
2017-10-01T02:15:55.253Z,95.41
2017-10-01T02:16:55.264Z,94.84
2017-10-01T02:17:55.283Z,95.41
2017-10-01T02:18:55.306Z,95.22
2017-10-01T02:19:55.325Z,96.03
2017-10-01T02:20:55.346Z,95.79
2017-10-01T02:21:55.368Z,96.03
2017-10-01T02:22:55.392Z,96.18
2017-10-01T02:23:55.430Z,96.27
2017-10-01T02:24:55.432Z,94.55
2017-10-01T02:25:55.447Z,94.65
2017-10-01T02:26:55.467Z,94.93
2017-10-01T02:27:55.493Z,94.93
2017-10-01T02:28:55.511Z,94.7
2017-10-01T02:29:55.529Z,94.7
2017-10-01T02:30:55.550Z,95.56
2017-10-01T02:31:55.573Z,94.6
2017-10-01T02:32:55.592Z,94.93
2017-10-01T02:33:55.615Z,94.46
2017-10-01T02:34:55.646Z,95.41
2017-10-01T02:35:55.651Z,95.7
2017-10-01T02:36:55.670Z,95.98
2017-10-01T02:37:55.690Z,96.37
2017-10-01T02:38:55.713Z,95.03
2017-10-01T02:39:55.731Z,95.89
2017-10-01T02:40:55.755Z,95.51
2017-10-01T02:41:55.770Z,95.79
2017-10-01T02:42:55.793Z,95.51
2017-10-01T02:43:55.812Z,96.08
2017-10-01T02:44:55.832Z,94.65
2017-10-01T02:45:55.855Z,95.61
2017-10-01T02:46:55.878Z,95.7
2017-10-01T02:47:55.893Z,95.32
2017-10-01T02:48:55.964Z,95.46
2017-10-01T02:49:55.943Z,95.17
2017-10-01T02:50:55.956Z,94.55
2017-10-01T02:51:55.972Z,95.41
2017-10-01T02:52:55.998Z,95.94
2017-10-01T02:53:56.019Z,95.65
2017-10-01T02:54:56.036Z,94.89
2017-10-01T02:55:56.050Z,95.7
2017-10-01T02:56:56.077Z,95.32
2017-10-01T02:57:56.091Z,96.08
2017-10-01T02:58:56.118Z,96.56
2017-10-01T02:59:56.135Z,96.17
2017-10-01T03:00:56.175Z,96.27
2017-10-01T03:01:56.173Z,96.46
2017-10-01T03:02:56.193Z,94.6
2017-10-01T03:03:56.213Z,95.03
2017-10-01T03:04:56.231Z,95.41
2017-10-01T03:05:56.300Z,95.61
2017-10-01T03:06:56.273Z,95.98
2017-10-01T03:07:56.292Z,95.98
2017-10-01T03:08:56.311Z,95.51
2017-10-01T03:09:56.335Z,95.41
2017-10-01T03:10:56.354Z,95.7
2017-10-01T03:11:56.371Z,94.74
2017-10-01T03:12:56.391Z,95.32
2017-10-01T03:13:56.411Z,96.27
2017-10-01T03:14:56.750Z,96.08
2017-10-01T03:15:56.463Z,95.51
2017-10-01T03:16:56.473Z,95.03
2017-10-01T03:17:56.501Z,95.98
2017-10-01T03:18:56.511Z,95.7
2017-10-01T03:19:56.534Z,94.93
2017-10-01T03:20:56.555Z,94.55
2017-10-01T03:21:56.572Z,94.55
2017-10-01T03:22:56.595Z,95.7
2017-10-01T03:23:56.618Z,95.51
2017-10-01T03:24:56.636Z,95.89
2017-10-01T03:25:56.658Z,96.17
2017-10-01T03:26:56.673Z,95.32
2017-10-01T03:27:56.690Z,95.41
2017-10-01T03:28:56.712Z,95.03
2017-10-01T03:29:57.039Z,95.12
2017-10-01T03:30:56.760Z,94.55
2017-10-01T03:31:56.783Z,95.03
2017-10-01T03:32:56.797Z,95.41
2017-10-01T03:33:56.808Z,94.93
2017-10-01T03:34:56.830Z,94.93
2017-10-01T03:35:56.850Z,94.93
2017-10-01T03:36:56.881Z,94.55
2017-10-01T03:37:56.940Z,94.74
2017-10-01T03:38:56.908Z,94.84
2017-10-01T03:39:56.933Z,94.84
2017-10-01T03:40:56.954Z,95.61
2017-10-01T03:41:56.971Z,95.51
2017-10-01T03:42:56.994Z,95.07
2017-10-01T03:43:57.009Z,94.74
2017-10-01T03:44:57.036Z,95.89
2017-10-01T03:45:57.066Z,94.84
2017-10-01T03:46:57.081Z,93.5
2017-10-01T03:47:57.095Z,94.55
2017-10-01T03:48:57.108Z,95.12
2017-10-01T03:49:57.131Z,94.84
2017-10-01T03:50:57.463Z,94.36
2017-10-01T03:51:57.165Z,94.17
2017-10-01T03:52:57.192Z,93.31
2017-10-01T03:53:57.208Z,94.93
2017-10-01T03:54:57.285Z,94.36
2017-10-01T03:55:57.249Z,94.36
2017-10-01T03:56:57.271Z,94.93
2017-10-01T03:57:57.289Z,94.93
2017-10-01T03:58:57.308Z,93.98
2017-10-01T03:59:57.324Z,94.93
2017-10-01T04:00:57.350Z,94.17
2017-10-01T04:01:57.373Z,94.07
2017-10-01T04:02:57.386Z,94.07
2017-10-01T04:03:57.402Z,93.98
2017-10-01T04:04:57.426Z,94.27
2017-10-01T04:05:57.449Z,93.98
2017-10-01T04:06:57.777Z,93.98
2017-10-01T04:07:57.484Z,94.36
2017-10-01T04:08:57.507Z,93.5
2017-10-01T04:09:57.574Z,94.27
2017-10-01T04:10:57.543Z,94.07
2017-10-01T04:11:57.563Z,94.93
2017-10-01T04:12:57.584Z,94.17
2017-10-01T04:13:57.601Z,95.03
2017-10-01T04:14:57.625Z,94.93
2017-10-01T04:15:57.641Z,94.65
2017-10-01T04:16:57.660Z,94.12
2017-10-01T04:17:57.683Z,93.16
2017-10-01T04:18:57.703Z,93.41
2017-10-01T04:19:57.722Z,93.6
2017-10-01T04:20:57.745Z,94.46
2017-10-01T04:21:57.761Z,94.36
2017-10-01T04:22:57.782Z,94.12
2017-10-01T04:23:57.820Z,94.74
2017-10-01T04:24:57.834Z,93.93
2017-10-01T04:25:57.842Z,94.46
2017-10-01T04:26:57.963Z,94.12
2017-10-01T04:27:57.881Z,93.88
2017-10-01T04:28:57.899Z,94.31
2017-10-01T04:29:57.924Z,94.7
2017-10-01T04:30:57.944Z,93.36
2017-10-01T04:31:57.965Z,93.84
2017-10-01T04:32:57.977Z,93.36
2017-10-01T04:33:58.010Z,93.84
2017-10-01T04:34:58.020Z,94.12
2017-10-01T04:35:58.036Z,94.02
2017-10-01T04:36:58.058Z,94.93
2017-10-01T04:37:58.078Z,94.22
2017-10-01T04:38:58.101Z,93.65
2017-10-01T04:39:58.138Z,93.12
2017-10-01T04:40:58.143Z,93.88
2017-10-01T04:41:58.162Z,94.07
2017-10-01T04:42:58.178Z,93.55
2017-10-01T04:43:58.254Z,94.07
2017-10-01T04:44:58.219Z,94.74
2017-10-01T04:45:58.240Z,94.93
2017-10-01T04:46:58.256Z,93.36
2017-10-01T04:47:58.280Z,94.02
2017-10-01T04:48:58.307Z,94.27
2017-10-01T04:49:58.320Z,93.88
2017-10-01T04:50:58.339Z,94.07
2017-10-01T04:51:58.378Z,94.65
2017-10-01T04:52:58.381Z,96.08
2017-10-01T04:53:58.401Z,95.56
2017-10-01T04:54:58.429Z,94.79
2017-10-01T04:55:58.449Z,94.46
2017-10-01T04:56:58.464Z,95.03
2017-10-01T04:57:58.480Z,95.32
2017-10-01T04:58:58.499Z,94.98
2017-10-01T04:59:58.517Z,93.12
2017-10-01T05:00:58.537Z,94.74
2017-10-01T05:01:58.567Z,94.74
2017-10-01T05:02:58.575Z,95.32
2017-10-01T05:03:58.596Z,94.84
2017-10-01T05:04:58.615Z,95.51
2017-10-01T05:05:58.637Z,94.84
2017-10-01T05:06:58.710Z,96.27
2017-10-01T05:07:58.683Z,95.7
2017-10-01T05:08:58.702Z,96.37
2017-10-01T05:09:58.725Z,96.17
2017-10-01T05:10:58.738Z,96.08
2017-10-01T05:11:58.784Z,96.27
2017-10-01T05:12:58.778Z,95.51
2017-10-01T05:13:58.798Z,96.17
2017-10-01T05:14:58.814Z,95.03
2017-10-01T05:15:58.833Z,96.37
2017-10-01T05:16:58.852Z,95.51
2017-10-01T05:17:58.873Z,96.61
2017-10-01T05:18:58.894Z,96.98
2017-10-01T05:19:58.912Z,96.98
2017-10-01T05:20:58.932Z,97.75
2017-10-01T05:21:58.955Z,98.13
2017-10-01T05:22:58.971Z,97.66
2017-10-01T05:23:58.994Z,97.27
2017-10-01T05:24:59.011Z,97.27
2017-10-01T05:25:59.080Z,97.75
2017-10-01T05:26:59.047Z,98.03
2017-10-01T05:27:59.069Z,97.47
2017-10-01T05:28:59.088Z,98.03
2017-10-01T05:29:59.108Z,98.13
2017-10-01T05:30:59.132Z,98.52
2017-10-01T05:31:59.483Z,97.66
2017-10-01T05:32:59.170Z,98.32
2017-10-01T05:33:59.188Z,98.52
2017-10-01T05:34:59.206Z,97.94
2017-10-01T05:35:59.225Z,98.61
2017-10-01T05:36:59.245Z,98.52
2017-10-01T05:37:59.269Z,98.8
2017-10-01T05:38:59.282Z,98.13
2017-10-01T05:39:59.305Z,98.13
2017-10-01T05:40:59.328Z,97.94
2017-10-01T05:41:59.341Z,98.9
2017-10-01T05:42:59.360Z,98.61
2017-10-01T05:43:59.386Z,97.89
2017-10-01T05:44:59.402Z,96.98
2017-10-01T05:45:59.419Z,97.27
2017-10-01T05:46:59.453Z,97.75
2017-10-01T05:47:59.462Z,97.42
2017-10-01T05:48:59.479Z,97.71
2017-10-01T05:49:59.499Z,97.13
2017-10-01T05:50:59.516Z,96.27
2017-10-01T05:51:59.539Z,97.32
2017-10-01T05:52:59.561Z,98.08
2017-10-01T05:53:59.578Z,98.03
2017-10-01T05:54:59.595Z,97.94
2017-10-01T05:55:59.617Z,97.66
2017-10-01T05:56:59.641Z,97.85
2017-10-01T05:57:59.656Z,96.94
2017-10-01T05:58:59.683Z,96.17
2017-10-01T05:59:59.694Z,97.56
2017-10-01T06:00:59.717Z,97.66
2017-10-01T06:01:59.736Z,97.66
2017-10-01T06:02:59.753Z,97.85
2017-10-01T06:03:59.775Z,97.18
2017-10-01T06:04:59.794Z,96.7
2017-10-01T06:05:59.814Z,97.23
2017-10-01T06:06:59.835Z,96.84
2017-10-01T06:07:59.853Z,96.61
2017-10-01T06:08:59.879Z,97.27
2017-10-01T06:09:59.894Z,97.99
2017-10-01T06:10:59.912Z,96.75
2017-10-01T06:11:59.930Z,96.75
2017-10-01T06:12:59.950Z,97.71
2017-10-01T06:13:59.972Z,97.42
2017-10-01T06:14:59.989Z,97.71
2017-10-01T06:16:00.015Z,98.47
2017-10-01T06:17:00.350Z,96.66
2017-10-01T06:18:00.064Z,96.66
2017-10-01T06:19:00.072Z,95.89
2017-10-01T06:20:00.089Z,95.89
2017-10-01T06:21:00.119Z,95.61
2017-10-01T06:22:00.133Z,96.37
2017-10-01T06:23:00.153Z,96.17
2017-10-01T06:24:00.167Z,96.22
2017-10-01T06:25:00.190Z,96.75
2017-10-01T06:26:00.212Z,96.56
2017-10-01T06:27:00.226Z,96.56
2017-10-01T06:28:00.249Z,97.13
2017-10-01T06:29:00.268Z,96.46
2017-10-01T06:30:00.294Z,96.08
2017-10-01T06:31:00.308Z,96.17
2017-10-01T06:32:00.331Z,95.79
2017-10-01T06:33:00.352Z,94.93
2017-10-01T06:34:00.371Z,96.27
2017-10-01T06:35:00.385Z,96.61
2017-10-01T06:36:00.405Z,95.79
2017-10-01T06:37:00.425Z,97.23
2017-10-01T06:38:00.446Z,97.32
2017-10-01T06:39:00.466Z,96.75
2017-10-01T06:40:00.486Z,96.66
2017-10-01T06:41:00.506Z,97.18
2017-10-01T06:42:00.524Z,96.61
2017-10-01T06:43:00.545Z,95.89
2017-10-01T06:44:00.568Z,95.7
2017-10-01T06:45:00.586Z,95.89
2017-10-01T06:46:00.605Z,97.03
2017-10-01T06:47:00.626Z,97.42
2017-10-01T06:48:00.645Z,96.94
2017-10-01T06:49:00.668Z,97.71
2017-10-01T06:50:00.681Z,97.03
2017-10-01T06:51:00.703Z,97.99
2017-10-01T06:52:00.722Z,97.52
2017-10-01T06:53:00.745Z,98.18
2017-10-01T06:54:00.766Z,99.23
2017-10-01T06:55:00.785Z,99.23
2017-10-01T06:56:00.812Z,97.08
2017-10-01T06:57:00.822Z,97.8
2017-10-01T06:58:00.844Z,97.71
2017-10-01T06:59:00.862Z,97.32
2017-10-01T07:00:00.886Z,97.42
2017-10-01T07:01:00.908Z,97.61
2017-10-01T07:02:00.922Z,98.32
2017-10-01T07:03:00.941Z,98.23
2017-10-01T07:04:00.964Z,99.08
2017-10-01T07:05:00.981Z,98.9
2017-10-01T07:06:01.049Z,98.18
2017-10-01T07:07:01.017Z,99.08
2017-10-01T07:08:01.036Z,98.94
2017-10-01T07:09:01.058Z,99.23
2017-10-01T07:10:01.093Z,98.47
2017-10-01T07:11:01.101Z,98.52
2017-10-01T07:12:01.118Z,97.66
2017-10-01T07:13:01.137Z,98.32
2017-10-01T07:14:01.161Z,98.8
2017-10-01T07:15:01.177Z,98.9
2017-10-01T07:16:01.197Z,98.99
2017-10-01T07:17:01.217Z,98.61
2017-10-01T07:18:01.236Z,98.61
2017-10-01T07:19:01.257Z,98.42
2017-10-01T07:20:01.589Z,98.42
2017-10-01T07:21:01.300Z,98.71
2017-10-01T07:22:01.315Z,98.99
2017-10-01T07:23:01.333Z,99.47
2017-10-01T07:24:01.351Z,99.08
2017-10-01T07:25:01.380Z,97.66
2017-10-01T07:26:01.395Z,98.32
2017-10-01T07:27:01.411Z,98.61
2017-10-01T07:28:01.435Z,98.23
2017-10-01T07:29:01.448Z,98.71
2017-10-01T07:30:01.781Z,98.61
2017-10-01T07:31:01.491Z,98.32
2017-10-01T07:32:01.507Z,98.32
2017-10-01T07:33:01.533Z,98.61
2017-10-01T07:34:01.552Z,97.94
2017-10-01T07:35:01.564Z,98.23
2017-10-01T07:36:01.585Z,98.42
2017-10-01T07:37:01.605Z,98.61
2017-10-01T07:38:01.626Z,98.47
2017-10-01T07:39:01.648Z,97.61
2017-10-01T07:40:01.667Z,97.8
2017-10-01T07:41:01.702Z,97.8
2017-10-01T07:42:01.706Z,97.52
2017-10-01T07:43:01.724Z,96.27
2017-10-01T07:44:01.744Z,97.13
2017-10-01T07:45:02.076Z,97.27
2017-10-01T07:46:01.781Z,98.08
2017-10-01T07:47:01.806Z,97.13
2017-10-01T07:48:01.828Z,97.42
2017-10-01T07:49:01.838Z,98.57
2017-10-01T07:50:01.857Z,97.71
2017-10-01T07:51:01.898Z,97.13
2017-10-01T07:52:02.203Z,96.56
2017-10-01T07:53:01.932Z,96.75
2017-10-01T07:54:01.943Z,96.56
2017-10-01T07:55:02.083Z,97.42
2017-10-01T07:56:02.005Z,96.37
2017-10-01T07:57:01.996Z,96.75
2017-10-01T07:58:02.013Z,96.37
2017-10-01T07:59:02.032Z,96.17
2017-10-01T08:00:02.058Z,95.98
2017-10-01T08:01:02.074Z,95.89
2017-10-01T08:02:02.095Z,96.84
2017-10-01T08:03:02.113Z,97.03
2017-10-01T08:04:02.138Z,97.23
2017-10-01T08:05:02.155Z,95.98
2017-10-01T08:06:02.171Z,95.89
2017-10-01T08:07:02.196Z,96.46
2017-10-01T08:08:02.215Z,96.27
2017-10-01T08:09:02.229Z,96.46
2017-10-01T08:10:02.253Z,96.94
2017-10-01T08:11:02.273Z,96.13
2017-10-01T08:12:02.295Z,94.84
2017-10-01T08:13:02.309Z,95.7
2017-10-01T08:14:02.645Z,95.61
2017-10-01T08:15:02.349Z,96.56
2017-10-01T08:16:02.367Z,96.37
2017-10-01T08:17:02.395Z,95.89
2017-10-01T08:18:02.410Z,95.61
2017-10-01T08:19:02.429Z,95.7
2017-10-01T08:20:02.449Z,96.08
2017-10-01T08:21:02.472Z,96.37
2017-10-01T08:22:02.487Z,97.52
2017-10-01T08:23:02.510Z,98.18
2017-10-01T08:24:02.527Z,97.85
2017-10-01T08:25:02.549Z,94.98
2017-10-01T08:26:02.564Z,95.07
2017-10-01T08:27:02.588Z,96.27
2017-10-01T08:28:02.611Z,95.75
2017-10-01T08:29:02.628Z,95.07
2017-10-01T08:30:02.648Z,94.51
2017-10-01T08:31:02.669Z,94.6
2017-10-01T08:32:02.691Z,94.02
2017-10-01T08:33:02.711Z,93.55
2017-10-01T08:34:02.727Z,93.93
2017-10-01T08:35:02.750Z,93.45
2017-10-01T08:36:02.770Z,93.45
2017-10-01T08:37:02.788Z,94.12
2017-10-01T08:38:02.807Z,94.31
2017-10-01T08:39:02.838Z,94.02
2017-10-01T08:40:02.852Z,93.65
2017-10-01T08:41:02.866Z,93.74
2017-10-01T08:42:02.886Z,92.21
2017-10-01T08:43:02.907Z,93.84
2017-10-01T08:44:02.925Z,93.16
2017-10-01T08:45:02.946Z,93.07
2017-10-01T08:46:02.969Z,92.3
2017-10-01T08:47:02.987Z,92.5
2017-10-01T08:48:03.015Z,91.74
2017-10-01T08:49:03.048Z,93.16
2017-10-01T08:50:03.053Z,92.69
2017-10-01T08:51:03.068Z,91.74
2017-10-01T08:52:03.094Z,92.83
2017-10-01T08:53:03.112Z,92.25
2017-10-01T08:54:03.129Z,91.59
2017-10-01T08:55:03.149Z,92.16
2017-10-01T08:56:03.182Z,89.96
2017-10-01T08:57:03.189Z,90.82
2017-10-01T08:58:03.210Z,90.67
2017-10-01T08:59:03.233Z,88.86
2017-10-01T09:00:03.564Z,89.24
2017-10-01T09:01:03.274Z,89.34
2017-10-01T09:02:03.612Z,90.2
2017-10-01T09:03:03.320Z,88.09
2017-10-01T09:04:03.345Z,86.28
2017-10-01T09:05:03.364Z,87.71
2017-10-01T09:06:03.383Z,87.86
2017-10-01T09:07:03.402Z,88.48
2017-10-01T09:08:03.423Z,88.19
2017-10-01T09:09:03.442Z,87.71
2017-10-01T09:10:03.462Z,87.33
2017-10-01T09:11:03.490Z,88.57
2017-10-01T09:12:03.502Z,86.66
2017-10-01T09:13:03.523Z,88.09
2017-10-01T09:14:03.543Z,85.71
2017-10-01T09:15:03.566Z,86.18
2017-10-01T09:16:03.584Z,86.94
2017-10-01T09:17:03.622Z,86.41
2017-10-01T09:18:03.629Z,85.55
2017-10-01T09:19:03.646Z,85.75
2017-10-01T09:20:03.676Z,86.7
2017-10-01T09:21:03.688Z,85.94
2017-10-01T09:22:03.710Z,86.99
2017-10-01T09:23:04.047Z,84.92
2017-10-01T09:24:03.761Z,83.39
2017-10-01T09:25:04.088Z,82.4
2017-10-01T09:26:03.814Z,81.82
2017-10-01T09:27:03.822Z,82.11
2017-10-01T09:28:04.153Z,82.4
2017-10-01T09:29:03.857Z,80.77
2017-10-01T09:30:03.883Z,82.2
2017-10-01T09:31:03.898Z,82.83
2017-10-01T09:32:03.931Z,81.92
2017-10-01T09:33:03.943Z,82.4
2017-10-01T09:34:03.964Z,82.2
2017-10-01T09:35:03.991Z,83.45
2017-10-01T09:36:04.013Z,82.49
2017-10-01T09:37:04.036Z,81.82
2017-10-01T09:38:04.055Z,81.25
2017-10-01T09:39:04.071Z,82.87
2017-10-01T09:40:04.091Z,82.92
2017-10-01T09:41:04.119Z,82.63
2017-10-01T09:42:04.137Z,82.24
2017-10-01T09:43:04.204Z,81.33
2017-10-01T09:44:04.486Z,77.69
2017-10-01T09:45:04.214Z,78.07
2017-10-01T09:46:04.550Z,77.4
2017-10-01T09:47:04.245Z,77.55
2017-10-01T09:48:04.269Z,78.07
2017-10-01T09:49:04.355Z,78.17
2017-10-01T09:50:04.314Z,77.4
2017-10-01T09:51:04.337Z,77.02
2017-10-01T09:52:04.357Z,75.68
2017-10-01T09:53:04.380Z,76.06
2017-10-01T09:54:04.460Z,77.59
2017-10-01T09:55:04.434Z,77.02
2017-10-01T09:56:04.445Z,75.62
2017-10-01T09:57:04.466Z,75.33
2017-10-01T09:58:04.491Z,73.61
2017-10-01T09:59:04.515Z,74.66
2017-10-01T10:00:04.531Z,73.8
2017-10-01T10:01:04.552Z,73.8
2017-10-01T10:02:04.575Z,72.39
2017-10-01T10:03:04.919Z,72.27
2017-10-01T10:04:04.683Z,72.01
2017-10-01T10:05:04.750Z,73.13
2017-10-01T10:06:04.664Z,73.13
2017-10-01T10:07:04.740Z,72.64
2017-10-01T10:08:04.711Z,72.94
2017-10-01T10:09:04.792Z,71.92
2017-10-01T10:10:04.824Z,72.68
2017-10-01T10:11:04.778Z,72.2
2017-10-01T10:12:04.810Z,71.53
2017-10-01T10:13:04.822Z,72.84
2017-10-01T10:14:04.847Z,73.7
2017-10-01T10:15:04.983Z,73.41
2017-10-01T10:16:04.887Z,71.4
2017-10-01T10:17:04.912Z,72.36
2017-10-01T10:18:04.939Z,72.84
2017-10-01T10:19:04.963Z,72.45
2017-10-01T10:20:05.032Z,71.84
2017-10-01T10:21:05.007Z,72.99
2017-10-01T10:22:05.021Z,72.42
2017-10-01T10:23:05.046Z,73.19
2017-10-01T10:24:05.068Z,73.28
2017-10-01T10:25:05.113Z,71.78
2017-10-01T10:26:05.175Z,71.21
2017-10-01T10:27:05.139Z,71.27
2017-10-01T10:28:05.169Z,73.57
2017-10-01T10:29:05.180Z,71.46
2017-10-01T10:30:05.207Z,71.88
2017-10-01T10:31:05.422Z,71.78
2017-10-01T10:32:05.249Z,70.67
2017-10-01T10:33:05.272Z,69.23
2017-10-01T10:34:05.300Z,68.3
2017-10-01T10:35:05.394Z,69.17
2017-10-01T10:36:05.351Z,68.88
2017-10-01T10:37:05.363Z,69.65
2017-10-01T10:38:05.385Z,70.61
2017-10-01T10:39:05.407Z,69.74
2017-10-01T10:40:05.453Z,68.63
2017-10-01T10:41:05.455Z,68.24
2017-10-01T10:42:05.605Z,68.91
2017-10-01T10:43:05.502Z,68.82
2017-10-01T10:44:05.523Z,65.75
2017-10-01T10:45:05.546Z,65.65
2017-10-01T10:46:05.568Z,67.19
2017-10-01T10:47:05.597Z,65.3
2017-10-01T10:48:05.620Z,65.3
2017-10-01T10:49:05.638Z,64.15
2017-10-01T10:50:05.664Z,64.53
2017-10-01T10:51:05.996Z,64.34
2017-10-01T10:52:05.798Z,64.43
2017-10-01T10:53:05.733Z,63.96
2017-10-01T10:54:05.758Z,64.25
2017-10-01T10:55:06.120Z,64.53
2017-10-01T10:56:05.809Z,63.51
2017-10-01T10:57:06.198Z,62.55
2017-10-01T10:58:05.860Z,61.43
2017-10-01T10:59:05.882Z,61.91
2017-10-01T11:00:05.959Z,59.12
2017-10-01T11:01:05.926Z,58.54
2017-10-01T11:02:05.954Z,59.99
2017-10-01T11:03:05.982Z,57.32
2017-10-01T11:04:05.998Z,56.55
2017-10-01T11:05:06.028Z,56.45
2017-10-01T11:06:06.050Z,56.26
2017-10-01T11:07:06.091Z,57.13
2017-10-01T11:08:06.105Z,57.06
2017-10-01T11:09:06.130Z,56.41
2017-10-01T11:10:06.215Z,58.08
2017-10-01T11:11:06.571Z,55.12
2017-10-01T11:12:06.206Z,52.35
2017-10-01T11:13:06.230Z,51.7
2017-10-01T11:14:06.564Z,50.45
2017-10-01T11:15:06.300Z,51.82
2017-10-01T11:16:06.314Z,48.93
2017-10-01T11:17:06.332Z,48.64
2017-10-01T11:18:06.474Z,50.47
2017-10-01T11:19:06.391Z,50.21
2017-10-01T11:20:06.415Z,47.02
2017-10-01T11:21:06.447Z,47.89
2017-10-01T11:22:06.469Z,48.76
2017-10-01T11:23:06.508Z,47.8
2017-10-01T11:24:06.676Z,47.5
2017-10-01T11:25:06.580Z,48.66
2017-10-01T11:26:06.581Z,47.89
2017-10-01T11:27:06.608Z,48.57
2017-10-01T11:28:06.726Z,47.5
2017-10-01T11:29:06.685Z,47.7
2017-10-01T11:30:06.722Z,48.06
2017-10-01T11:31:06.776Z,47.96
2017-10-01T11:32:06.739Z,48.52
2017-10-01T11:33:06.772Z,48.42
2017-10-01T11:34:07.119Z,49.87
2017-10-01T11:35:06.898Z,51.68
2017-10-01T11:36:06.844Z,51.1
2017-10-01T11:37:06.870Z,49.87
2017-10-01T11:38:06.909Z,50.13
2017-10-01T11:39:07.051Z,49.94
2017-10-01T11:40:07.270Z,50.04
2017-10-01T11:41:06.971Z,50.13
2017-10-01T11:42:07.003Z,50.78
2017-10-01T11:43:07.025Z,50.98
2017-10-01T11:44:07.049Z,50.21
2017-10-01T11:45:07.602Z,51.82
2017-10-01T11:46:07.517Z,51.62
2017-10-01T11:47:07.602Z,51.92
2017-10-01T11:48:07.203Z,52.11
2017-10-01T11:49:07.319Z,52.42
2017-10-01T11:50:07.202Z,50.85
2017-10-01T11:51:07.761Z,50.57
2017-10-01T11:52:08.195Z,51.75
2017-10-01T11:53:07.792Z,50.88
2017-10-01T11:54:07.659Z,49.91
2017-10-01T11:55:07.682Z,50.11
2017-10-01T11:56:07.643Z,50.04
2017-10-01T11:57:07.506Z,49.58
2017-10-01T11:58:07.406Z,47.75
2017-10-01T11:59:07.432Z,47.94
2017-10-01T12:00:07.456Z,47.55
2017-10-01T12:01:07.530Z,47.58
2017-10-01T12:02:07.511Z,46.51
2017-10-01T12:03:07.530Z,46.42
2017-10-01T12:04:07.557Z,45.96
2017-10-01T12:05:07.691Z,45.76
2017-10-01T12:06:07.659Z,44.9
2017-10-01T12:07:07.638Z,45.57
2017-10-01T12:08:07.662Z,46.15
2017-10-01T12:09:07.690Z,44.43
2017-10-01T12:10:07.844Z,45.59
2017-10-01T12:11:07.743Z,44.34
2017-10-01T12:12:07.770Z,45.5
2017-10-01T12:13:07.802Z,45.76
2017-10-01T12:14:07.822Z,46.06
2017-10-01T12:15:07.852Z,46.42
2017-10-01T12:16:07.887Z,47.55
2017-10-01T12:17:07.907Z,47.75
2017-10-01T12:18:08.991Z,47.92
2017-10-01T12:19:08.117Z,48.4
2017-10-01T12:20:07.985Z,48.4
2017-10-01T12:21:08.058Z,48.95
2017-10-01T12:22:08.345Z,50.11
2017-10-01T12:23:08.059Z,50.11
2017-10-01T12:24:08.189Z,49.15
2017-10-01T12:25:08.131Z,51.07
2017-10-01T12:26:08.143Z,49.34
2017-10-01T12:27:08.160Z,50.76
2017-10-01T12:28:08.191Z,51.53
2017-10-01T12:29:08.208Z,49.7
2017-10-01T12:30:08.470Z,50.66
2017-10-01T12:31:08.578Z,49.22
2017-10-01T12:32:08.285Z,50.85
2017-10-01T12:33:08.310Z,50.37
2017-10-01T12:34:08.337Z,50.73
2017-10-01T12:35:08.360Z,50.57
2017-10-01T12:36:08.386Z,51.72
2017-10-01T12:37:08.532Z,49.89
2017-10-01T12:38:08.444Z,50.73
2017-10-01T12:39:08.778Z,50.73
2017-10-01T12:40:08.490Z,51.89
2017-10-01T12:41:08.820Z,51.79
2017-10-01T12:42:08.542Z,52.56
2017-10-01T12:43:08.560Z,52.18
2017-10-01T12:44:08.583Z,52.27
2017-10-01T12:45:08.636Z,51.21
2017-10-01T12:46:08.634Z,51.89
2017-10-01T12:47:08.656Z,53.02
2017-10-01T12:48:08.685Z,52.83
2017-10-01T12:49:08.726Z,52.83
2017-10-01T12:50:08.759Z,54.27
2017-10-01T12:51:09.077Z,53.59
2017-10-01T12:52:10.345Z,54.75
2017-10-01T12:53:08.807Z,54.14
2017-10-01T12:54:08.831Z,54.53
2017-10-01T12:55:09.218Z,55.68
2017-10-01T12:56:09.210Z,55.59